sensor_id;sensor_type;location;lat;lon;timestamp;pressure;altitude;pressure_sealevel;temperature;humidity
73518;BME280;61766;60.318;25.044;2023-05-08T00:01:45;102909.15;;;6.96;29.20
73518;BME280;61766;60.318;25.044;2023-05-08T00:04:11;102909.99;;;6.76;29.23
73518;BME280;61766;60.318;25.044;2023-05-08T00:06:36;102910.92;;;7.08;29.39
73518;BME280;61766;60.318;25.044;2023-05-08T00:09:02;102911.24;;;7.03;29.82
73518;BME280;61766;60.318;25.044;2023-05-08T00:11:27;102915.38;;;7.08;29.27
73518;BME280;61766;60.318;25.044;2023-05-08T00:13:53;102917.35;;;6.86;29.68
73518;BME280;61766;60.318;25.044;2023-05-08T00:16:17;102916.52;;;7.12;29.43
73518;BME280;61766;60.318;25.044;2023-05-08T00:18:43;102918.34;;;7.18;29.27
73518;BME280;61766;60.318;25.044;2023-05-08T00:21:08;102921.21;;;7.19;29.29
73518;BME280;61766;60.318;25.044;2023-05-08T00:23:34;102921.50;;;7.20;29.28
73518;BME280;61766;60.318;25.044;2023-05-08T00:25:58;102920.75;;;7.25;29.17
73518;BME280;61766;60.318;25.044;2023-05-08T00:28:23;102920.24;;;7.26;29.48
73518;BME280;61766;60.318;25.044;2023-05-08T00:30:49;102919.25;;;7.26;29.23
73518;BME280;61766;60.318;25.044;2023-05-08T00:33:14;102919.49;;;7.28;29.08
73518;BME280;61766;60.318;25.044;2023-05-08T00:35:40;102921.68;;;7.31;29.57
73518;BME280;61766;60.318;25.044;2023-05-08T00:38:05;102923.73;;;7.14;29.51
73518;BME280;61766;60.318;25.044;2023-05-08T00:40:30;102924.86;;;7.41;29.48
73518;BME280;61766;60.318;25.044;2023-05-08T00:42:55;102923.49;;;7.45;29.30
73518;BME280;61766;60.318;25.044;2023-05-08T00:45:20;102924.17;;;7.45;29.36
73518;BME280;61766;60.318;25.044;2023-05-08T00:47:46;102926.37;;;7.40;29.60
73518;BME280;61766;60.318;25.044;2023-05-08T00:50:12;102928.78;;;7.49;29.51
73518;BME280;61766;60.318;25.044;2023-05-08T00:52:37;102929.45;;;7.54;29.56
73518;BME280;61766;60.318;25.044;2023-05-08T00:55:04;102932.82;;;7.29;29.50
73518;BME280;61766;60.318;25.044;2023-05-08T00:57:29;102936.90;;;7.54;29.43
73518;BME280;61766;60.318;25.044;2023-05-08T00:59:54;102936.65;;;7.30;29.54
73518;BME280;61766;60.318;25.044;2023-05-08T01:02:18;102939.20;;;7.35;29.29
73518;BME280;61766;60.318;25.044;2023-05-08T01:04:43;102941.01;;;7.36;29.16
73518;BME280;61766;60.318;25.044;2023-05-08T01:07:08;102944.23;;;7.37;29.36
73518;BME280;61766;60.318;25.044;2023-05-08T01:09:33;102945.96;;;7.63;29.10
73518;BME280;61766;60.318;25.044;2023-05-08T01:12:06;102949.23;;;7.61;29.53
73518;BME280;61766;60.318;25.044;2023-05-08T01:14:28;102951.83;;;7.36;29.58
73518;BME280;61766;60.318;25.044;2023-05-08T01:16:57;102953.56;;;7.36;29.77
73518;BME280;61766;60.318;25.044;2023-05-08T01:19:40;102952.49;;;7.28;30.02
73518;BME280;61766;60.318;25.044;2023-05-08T01:21:44;102950.93;;;7.53;30.03
73518;BME280;61766;60.318;25.044;2023-05-08T01:29:11;102954.99;;;7.22;30.22
73518;BME280;61766;60.318;25.044;2023-05-08T01:31:24;102956.53;;;7.51;30.73
73518;BME280;61766;60.318;25.044;2023-05-08T01:33:48;102964.22;;;7.13;30.85
73518;BME280;61766;60.318;25.044;2023-05-08T01:36:17;102967.09;;;7.19;30.52
73518;BME280;61766;60.318;25.044;2023-05-08T01:38:42;102967.90;;;7.23;30.55
73518;BME280;61766;60.318;25.044;2023-05-08T01:41:07;102969.62;;;7.30;30.56
73518;BME280;61766;60.318;25.044;2023-05-08T01:43:32;102971.62;;;7.11;30.35
73518;BME280;61766;60.318;25.044;2023-05-08T01:45:53;102971.87;;;7.38;30.24
73518;BME280;61766;60.318;25.044;2023-05-08T01:48:23;102970.63;;;7.45;30.21
73518;BME280;61766;60.318;25.044;2023-05-08T01:50:47;102969.26;;;7.36;30.16
73518;BME280;61766;60.318;25.044;2023-05-08T01:53:16;102970.64;;;7.38;30.01
73518;BME280;61766;60.318;25.044;2023-05-08T01:55:35;102970.10;;;7.28;30.22
73518;BME280;61766;60.318;25.044;2023-05-08T01:58:01;102970.08;;;7.27;30.26
73518;BME280;61766;60.318;25.044;2023-05-08T02:00:25;102968.71;;;7.23;30.43
73518;BME280;61766;60.318;25.044;2023-05-08T02:02:50;102971.41;;;7.21;30.22
73518;BME280;61766;60.318;25.044;2023-05-08T02:05:15;102974.97;;;7.16;30.11
73518;BME280;61766;60.318;25.044;2023-05-08T02:07:40;102975.31;;;7.12;29.99
73518;BME280;61766;60.318;25.044;2023-05-08T02:10:07;102975.04;;;7.11;30.11
73518;BME280;61766;60.318;25.044;2023-05-08T02:12:30;102977.85;;;7.08;29.80
73518;BME280;61766;60.318;25.044;2023-05-08T02:14:56;102977.24;;;7.06;29.91
73518;BME280;61766;60.318;25.044;2023-05-08T02:17:21;102977.64;;;6.99;30.17
73518;BME280;61766;60.318;25.044;2023-05-08T02:19:47;102980.03;;;6.94;30.26
73518;BME280;61766;60.318;25.044;2023-05-08T02:22:12;102980.09;;;6.80;30.48
73518;BME280;61766;60.318;25.044;2023-05-08T02:24:37;102981.94;;;6.70;30.76
73518;BME280;61766;60.318;25.044;2023-05-08T02:27:03;102983.91;;;6.63;30.72
73518;BME280;61766;60.318;25.044;2023-05-08T02:29:28;102987.49;;;7.06;30.91
73518;BME280;61766;60.318;25.044;2023-05-08T02:31:53;102987.15;;;6.48;30.83
73518;BME280;61766;60.318;25.044;2023-05-08T02:34:19;102985.19;;;6.43;31.03
73518;BME280;61766;60.318;25.044;2023-05-08T02:36:44;102985.48;;;6.87;30.71
73518;BME280;61766;60.318;25.044;2023-05-08T02:39:11;102986.10;;;6.34;30.67
73518;BME280;61766;60.318;25.044;2023-05-08T02:41:34;102987.32;;;6.57;30.64
73518;BME280;61766;60.318;25.044;2023-05-08T02:43:59;102986.26;;;6.29;30.80
73518;BME280;61766;60.318;25.044;2023-05-08T02:46:28;102989.20;;;6.73;30.84
73518;BME280;61766;60.318;25.044;2023-05-08T02:48:55;102990.72;;;6.74;31.17
73518;BME280;61766;60.318;25.044;2023-05-08T02:51:19;102991.07;;;6.64;31.15
73518;BME280;61766;60.318;25.044;2023-05-08T02:53:45;102990.82;;;6.56;31.12
73518;BME280;61766;60.318;25.044;2023-05-08T02:56:09;102991.20;;;6.37;30.84
73518;BME280;61766;60.318;25.044;2023-05-08T02:58:39;102989.43;;;6.16;30.98
73518;BME280;61766;60.318;25.044;2023-05-08T03:00:59;102990.65;;;6.62;30.99
73518;BME280;61766;60.318;25.044;2023-05-08T03:03:25;102989.25;;;6.61;30.95
73518;BME280;61766;60.318;25.044;2023-05-08T03:05:50;102989.97;;;6.54;31.13
73518;BME280;61766;60.318;25.044;2023-05-08T03:08:15;102987.60;;;6.46;31.40
73518;BME280;61766;60.318;25.044;2023-05-08T03:10:38;102984.45;;;6.37;31.31
73518;BME280;61766;60.318;25.044;2023-05-08T03:13:04;102986.33;;;6.38;31.12
73518;BME280;61766;60.318;25.044;2023-05-08T03:15:33;102986.43;;;6.38;31.07
73518;BME280;61766;60.318;25.044;2023-05-08T03:17:56;102985.77;;;6.40;31.42
73518;BME280;61766;60.318;25.044;2023-05-08T03:20:19;102986.42;;;6.45;31.06
73518;BME280;61766;60.318;25.044;2023-05-08T03:22:45;102982.15;;;6.48;31.30
73518;BME280;61766;60.318;25.044;2023-05-08T03:25:09;102982.59;;;6.39;31.18
73518;BME280;61766;60.318;25.044;2023-05-08T03:27:35;102977.47;;;6.47;31.67
73518;BME280;61766;60.318;25.044;2023-05-08T03:30:01;102977.12;;;6.22;31.39
73518;BME280;61766;60.318;25.044;2023-05-08T03:32:26;102978.40;;;6.50;31.56
73518;BME280;61766;60.318;25.044;2023-05-08T03:34:52;102978.59;;;6.56;31.29
73518;BME280;61766;60.318;25.044;2023-05-08T03:37:16;102977.57;;;6.33;31.26
73518;BME280;61766;60.318;25.044;2023-05-08T03:39:41;102979.22;;;6.23;30.95
73518;BME280;61766;60.318;25.044;2023-05-08T03:42:06;102979.87;;;6.84;31.11
73518;BME280;61766;60.318;25.044;2023-05-08T03:44:32;102979.48;;;6.96;31.15
73518;BME280;61766;60.318;25.044;2023-05-08T03:46:58;102974.07;;;6.62;31.18
73518;BME280;61766;60.318;25.044;2023-05-08T03:49:22;102972.24;;;6.77;30.97
73518;BME280;61766;60.318;25.044;2023-05-08T03:51:47;102973.68;;;6.86;31.00
73518;BME280;61766;60.318;25.044;2023-05-08T03:54:12;102973.17;;;7.03;30.91
73518;BME280;61766;60.318;25.044;2023-05-08T03:56:37;102972.97;;;7.18;30.60
73518;BME280;61766;60.318;25.044;2023-05-08T03:59:10;102972.37;;;6.95;30.96
73518;BME280;61766;60.318;25.044;2023-05-08T04:01:35;102969.68;;;7.32;30.81
73518;BME280;61766;60.318;25.044;2023-05-08T04:03:58;102965.28;;;7.24;30.54
73518;BME280;61766;60.318;25.044;2023-05-08T04:06:24;102964.01;;;6.92;30.81
73518;BME280;61766;60.318;25.044;2023-05-08T04:08:50;102962.73;;;6.94;31.31
73518;BME280;61766;60.318;25.044;2023-05-08T04:11:16;102961.99;;;7.39;31.56
73518;BME280;61766;60.318;25.044;2023-05-08T04:13:41;102959.75;;;6.98;31.25
73518;BME280;61766;60.318;25.044;2023-05-08T04:16:06;102961.59;;;7.36;30.58
73518;BME280;61766;60.318;25.044;2023-05-08T04:18:28;102963.72;;;6.51;31.47
73518;BME280;61766;60.318;25.044;2023-05-08T04:20:54;102964.12;;;7.29;30.80
73518;BME280;61766;60.318;25.044;2023-05-08T04:23:19;102964.84;;;7.52;31.00
73518;BME280;61766;60.318;25.044;2023-05-08T04:25:43;102961.52;;;7.70;30.53
73518;BME280;61766;60.318;25.044;2023-05-08T04:28:07;102962.88;;;7.99;30.16
73518;BME280;61766;60.318;25.044;2023-05-08T04:30:32;102968.63;;;8.48;29.87
73518;BME280;61766;60.318;25.044;2023-05-08T04:32:58;102968.05;;;8.15;29.71
73518;BME280;61766;60.318;25.044;2023-05-08T04:35:23;102968.42;;;8.74;29.28
73518;BME280;61766;60.318;25.044;2023-05-08T04:37:48;102970.00;;;8.68;28.93
73518;BME280;61766;60.318;25.044;2023-05-08T04:40:13;102966.79;;;8.85;29.19
73518;BME280;61766;60.318;25.044;2023-05-08T04:42:38;102965.37;;;8.80;28.66
73518;BME280;61766;60.318;25.044;2023-05-08T04:45:05;102966.18;;;8.78;27.87
73518;BME280;61766;60.318;25.044;2023-05-08T04:47:29;102964.82;;;8.55;28.63
73518;BME280;61766;60.318;25.044;2023-05-08T04:49:54;102961.92;;;9.03;28.33
73518;BME280;61766;60.318;25.044;2023-05-08T04:52:20;102964.13;;;8.98;27.70
73518;BME280;61766;60.318;25.044;2023-05-08T04:54:45;102962.47;;;8.44;28.68
73518;BME280;61766;60.318;25.044;2023-05-08T04:57:10;102962.47;;;9.43;27.27
73518;BME280;61766;60.318;25.044;2023-05-08T04:59:35;102960.60;;;7.47;28.43
73518;BME280;61766;60.318;25.044;2023-05-08T05:02:01;102963.87;;;8.40;28.06
73518;BME280;61766;60.318;25.044;2023-05-08T05:04:26;102959.90;;;9.77;27.22
73518;BME280;61766;60.318;25.044;2023-05-08T05:06:51;102961.51;;;8.99;26.69
73518;BME280;61766;60.318;25.044;2023-05-08T05:09:16;102958.57;;;9.61;26.78
73518;BME280;61766;60.318;25.044;2023-05-08T05:11:41;102957.02;;;8.66;27.60
73518;BME280;61766;60.318;25.044;2023-05-08T05:14:07;102956.84;;;8.70;26.96
73518;BME280;61766;60.318;25.044;2023-05-08T05:16:32;102957.04;;;9.39;26.48
73518;BME280;61766;60.318;25.044;2023-05-08T05:18:57;102956.72;;;9.50;26.91
73518;BME280;61766;60.318;25.044;2023-05-08T05:21:22;102956.03;;;9.66;26.89
73518;BME280;61766;60.318;25.044;2023-05-08T05:23:47;102957.99;;;8.43;27.19
73518;BME280;61766;60.318;25.044;2023-05-08T05:26:12;102956.88;;;9.57;26.82
73518;BME280;61766;60.318;25.044;2023-05-08T05:28:37;102957.56;;;9.02;26.43
73518;BME280;61766;60.318;25.044;2023-05-08T05:31:03;102957.47;;;8.94;26.84
73518;BME280;61766;60.318;25.044;2023-05-08T05:33:28;102956.07;;;8.77;27.05
73518;BME280;61766;60.318;25.044;2023-05-08T05:35:53;102952.09;;;9.89;25.91
73518;BME280;61766;60.318;25.044;2023-05-08T05:38:18;102949.33;;;10.20;25.27
73518;BME280;61766;60.318;25.044;2023-05-08T05:40:43;102950.13;;;11.01;24.08
73518;BME280;61766;60.318;25.044;2023-05-08T05:43:08;102951.41;;;10.64;24.07
73518;BME280;61766;60.318;25.044;2023-05-08T05:45:33;102952.15;;;10.71;23.71
73518;BME280;61766;60.318;25.044;2023-05-08T05:47:58;102952.66;;;11.18;22.85
73518;BME280;61766;60.318;25.044;2023-05-08T05:50:23;102949.69;;;11.05;23.49
73518;BME280;61766;60.318;25.044;2023-05-08T05:52:48;102949.45;;;10.96;22.46
73518;BME280;61766;60.318;25.044;2023-05-08T05:55:13;102950.01;;;10.87;22.36
73518;BME280;61766;60.318;25.044;2023-05-08T05:57:39;102950.63;;;10.41;22.51
73518;BME280;61766;60.318;25.044;2023-05-08T06:00:05;102953.21;;;10.69;22.58
73518;BME280;61766;60.318;25.044;2023-05-08T06:02:28;102953.40;;;9.65;23.23
73518;BME280;61766;60.318;25.044;2023-05-08T06:04:54;102954.46;;;10.44;23.48
73518;BME280;61766;60.318;25.044;2023-05-08T06:07:19;102956.52;;;10.80;22.52
73518;BME280;61766;60.318;25.044;2023-05-08T06:09:44;102958.92;;;10.63;22.48
73518;BME280;61766;60.318;25.044;2023-05-08T06:12:09;102954.19;;;9.96;22.95
73518;BME280;61766;60.318;25.044;2023-05-08T06:14:34;102952.96;;;10.36;22.76
73518;BME280;61766;60.318;25.044;2023-05-08T06:16:59;102952.69;;;10.41;22.81
73518;BME280;61766;60.318;25.044;2023-05-08T06:19:24;102954.50;;;10.50;23.52
73518;BME280;61766;60.318;25.044;2023-05-08T06:21:50;102954.93;;;10.09;23.34
73518;BME280;61766;60.318;25.044;2023-05-08T06:24:14;102957.07;;;10.30;22.98
73518;BME280;61766;60.318;25.044;2023-05-08T06:26:39;102954.82;;;10.92;23.05
73518;BME280;61766;60.318;25.044;2023-05-08T06:29:04;102954.25;;;10.31;23.46
73518;BME280;61766;60.318;25.044;2023-05-08T06:31:29;102950.71;;;10.75;23.27
73518;BME280;61766;60.318;25.044;2023-05-08T06:33:54;102949.12;;;10.30;23.53
73518;BME280;61766;60.318;25.044;2023-05-08T06:36:19;102952.69;;;10.42;23.50
73518;BME280;61766;60.318;25.044;2023-05-08T06:38:44;102944.08;;;10.73;23.37
73518;BME280;61766;60.318;25.044;2023-05-08T06:41:09;102942.16;;;10.86;23.20
73518;BME280;61766;60.318;25.044;2023-05-08T06:43:34;102940.90;;;11.55;22.41
73518;BME280;61766;60.318;25.044;2023-05-08T06:45:59;102939.43;;;11.35;24.02
73518;BME280;61766;60.318;25.044;2023-05-08T06:48:25;102936.33;;;11.45;22.38
73518;BME280;61766;60.318;25.044;2023-05-08T06:50:50;102937.30;;;11.93;21.65
73518;BME280;61766;60.318;25.044;2023-05-08T06:53:15;102937.91;;;11.19;22.69
73518;BME280;61766;60.318;25.044;2023-05-08T06:55:42;102944.36;;;11.45;22.04
73518;BME280;61766;60.318;25.044;2023-05-08T06:58:05;102938.42;;;11.67;22.29
73518;BME280;61766;60.318;25.044;2023-05-08T07:00:30;102936.06;;;11.99;22.10
73518;BME280;61766;60.318;25.044;2023-05-08T07:02:55;102934.09;;;12.42;21.63
73518;BME280;61766;60.318;25.044;2023-05-08T07:05:20;102929.07;;;12.59;21.02
73518;BME280;61766;60.318;25.044;2023-05-08T07:07:45;102931.39;;;12.90;19.95
73518;BME280;61766;60.318;25.044;2023-05-08T07:10:10;102933.80;;;12.94;20.69
73518;BME280;61766;60.318;25.044;2023-05-08T07:12:35;102933.44;;;12.62;20.52
73518;BME280;61766;60.318;25.044;2023-05-08T07:15:00;102937.69;;;12.28;21.05
73518;BME280;61766;60.318;25.044;2023-05-08T07:17:25;102937.64;;;11.98;21.53
73518;BME280;61766;60.318;25.044;2023-05-08T07:19:50;102932.39;;;12.79;20.79
73518;BME280;61766;60.318;25.044;2023-05-08T07:22:15;102930.76;;;13.17;20.23
73518;BME280;61766;60.318;25.044;2023-05-08T07:24:40;102933.49;;;13.85;20.53
73518;BME280;61766;60.318;25.044;2023-05-08T07:27:06;102930.20;;;13.01;20.65
73518;BME280;61766;60.318;25.044;2023-05-08T07:29:33;102921.21;;;13.76;19.66
73518;BME280;61766;60.318;25.044;2023-05-08T07:31:58;102927.17;;;13.59;18.90
73518;BME280;61766;60.318;25.044;2023-05-08T07:34:24;102927.23;;;12.92;19.24
73518;BME280;61766;60.318;25.044;2023-05-08T07:36:50;102925.76;;;10.80;20.06
73518;BME280;61766;60.318;25.044;2023-05-08T07:39:15;102914.15;;;11.97;18.32
73518;BME280;61766;60.318;25.044;2023-05-08T07:41:40;102916.23;;;12.92;18.20
73518;BME280;61766;60.318;25.044;2023-05-08T07:44:06;102918.79;;;13.86;18.75
73518;BME280;61766;60.318;25.044;2023-05-08T07:46:32;102918.55;;;13.62;18.97
73518;BME280;61766;60.318;25.044;2023-05-08T07:48:57;102907.94;;;14.30;19.37
73518;BME280;61766;60.318;25.044;2023-05-08T07:51:23;102915.72;;;13.50;18.59
73518;BME280;61766;60.318;25.044;2023-05-08T07:53:49;102901.69;;;14.15;18.13
73518;BME280;61766;60.318;25.044;2023-05-08T07:56:15;102902.49;;;14.57;17.64
73518;BME280;61766;60.318;25.044;2023-05-08T07:58:41;102899.48;;;15.69;17.14
73518;BME280;61766;60.318;25.044;2023-05-08T08:01:07;102898.79;;;15.99;17.31
73518;BME280;61766;60.318;25.044;2023-05-08T08:03:32;102898.80;;;14.68;18.24
73518;BME280;61766;60.318;25.044;2023-05-08T08:05:58;102894.82;;;15.65;17.64
73518;BME280;61766;60.318;25.044;2023-05-08T08:08:24;102893.98;;;15.97;17.81
73518;BME280;61766;60.318;25.044;2023-05-08T08:10:50;102903.90;;;15.87;18.69
73518;BME280;61766;60.318;25.044;2023-05-08T08:13:16;102904.74;;;14.05;19.03
73518;BME280;61766;60.318;25.044;2023-05-08T08:15:41;102893.41;;;15.17;18.80
73518;BME280;61766;60.318;25.044;2023-05-08T08:18:08;102891.27;;;14.89;18.64
73518;BME280;61766;60.318;25.044;2023-05-08T08:20:33;102888.24;;;15.05;18.14
73518;BME280;61766;60.318;25.044;2023-05-08T08:22:58;102887.21;;;15.77;17.70
73518;BME280;61766;60.318;25.044;2023-05-08T08:25:24;102882.53;;;14.07;19.40
73518;BME280;61766;60.318;25.044;2023-05-08T08:27:50;102888.16;;;13.22;20.30
73518;BME280;61766;60.318;25.044;2023-05-08T08:30:16;102885.74;;;15.24;18.91
73518;BME280;61766;60.318;25.044;2023-05-08T08:32:42;102886.20;;;16.16;18.72
73518;BME280;61766;60.318;25.044;2023-05-08T08:35:08;102886.46;;;15.40;18.29
73518;BME280;61766;60.318;25.044;2023-05-08T08:37:33;102889.01;;;14.63;18.35
73518;BME280;61766;60.318;25.044;2023-05-08T08:39:59;102893.22;;;14.31;18.87
73518;BME280;61766;60.318;25.044;2023-05-08T08:42:25;102883.87;;;15.90;18.72
73518;BME280;61766;60.318;25.044;2023-05-08T08:44:51;102882.41;;;15.22;17.88
73518;BME280;61766;60.318;25.044;2023-05-08T08:47:18;102881.00;;;15.79;18.04
73518;BME280;61766;60.318;25.044;2023-05-08T08:49:47;102873.36;;;16.49;17.87
73518;BME280;61766;60.318;25.044;2023-05-08T08:52:14;102878.76;;;16.73;17.63
73518;BME280;61766;60.318;25.044;2023-05-08T08:54:35;102878.66;;;16.36;17.66
73518;BME280;61766;60.318;25.044;2023-05-08T08:57:03;102879.42;;;16.26;17.45
73518;BME280;61766;60.318;25.044;2023-05-08T08:59:26;102876.60;;;15.04;19.16
73518;BME280;61766;60.318;25.044;2023-05-08T09:01:55;102879.47;;;13.56;20.71
73518;BME280;61766;60.318;25.044;2023-05-08T09:04:17;102877.84;;;14.47;21.00
73518;BME280;61766;60.318;25.044;2023-05-08T09:06:43;102880.15;;;15.08;20.45
73518;BME280;61766;60.318;25.044;2023-05-08T09:09:11;102870.82;;;14.15;21.51
73518;BME280;61766;60.318;25.044;2023-05-08T09:11:35;102885.42;;;12.95;22.74
73518;BME280;61766;60.318;25.044;2023-05-08T09:14:00;102875.84;;;13.81;22.33
73518;BME280;61766;60.318;25.044;2023-05-08T09:16:27;102881.75;;;12.06;23.13
73518;BME280;61766;60.318;25.044;2023-05-08T09:18:52;102874.22;;;13.04;22.40
73518;BME280;61766;60.318;25.044;2023-05-08T09:21:18;102868.92;;;13.91;22.26
73518;BME280;61766;60.318;25.044;2023-05-08T09:23:54;102877.16;;;12.42;22.31
73518;BME280;61766;60.318;25.044;2023-05-08T09:26:10;102874.11;;;12.40;22.43
73518;BME280;61766;60.318;25.044;2023-05-08T09:28:35;102875.45;;;11.41;23.02
73518;BME280;61766;60.318;25.044;2023-05-08T09:31:01;102864.38;;;13.46;22.33
73518;BME280;61766;60.318;25.044;2023-05-08T09:33:28;102874.05;;;13.18;21.17
73518;BME280;61766;60.318;25.044;2023-05-08T09:35:53;102866.48;;;13.53;21.06
73518;BME280;61766;60.318;25.044;2023-05-08T09:38:32;102866.05;;;12.26;22.59
73518;BME280;61766;60.318;25.044;2023-05-08T09:40:44;102869.64;;;13.07;22.63
73518;BME280;61766;60.318;25.044;2023-05-08T09:43:12;102863.15;;;13.19;20.76
73518;BME280;61766;60.318;25.044;2023-05-08T09:45:36;102865.25;;;12.41;21.46
73518;BME280;61766;60.318;25.044;2023-05-08T09:48:02;102858.41;;;12.68;22.19
73518;BME280;61766;60.318;25.044;2023-05-08T09:50:28;102853.73;;;15.04;20.37
73518;BME280;61766;60.318;25.044;2023-05-08T09:52:54;102851.86;;;14.71;20.97
73518;BME280;61766;60.318;25.044;2023-05-08T09:55:19;102852.61;;;14.40;21.76
73518;BME280;61766;60.318;25.044;2023-05-08T09:57:52;102856.33;;;13.22;21.06
73518;BME280;61766;60.318;25.044;2023-05-08T10:00:12;102845.07;;;14.58;21.37
73518;BME280;61766;60.318;25.044;2023-05-08T10:02:39;102844.10;;;14.77;20.60
73518;BME280;61766;60.318;25.044;2023-05-08T10:05:03;102850.51;;;13.76;21.11
73518;BME280;61766;60.318;25.044;2023-05-08T10:07:30;102852.81;;;12.30;22.82
73518;BME280;61766;60.318;25.044;2023-05-08T10:09:59;102844.77;;;13.26;22.21
73518;BME280;61766;60.318;25.044;2023-05-08T10:12:20;102840.24;;;13.68;22.20
73518;BME280;61766;60.318;25.044;2023-05-08T10:14:46;102847.08;;;12.64;23.60
73518;BME280;61766;60.318;25.044;2023-05-08T10:17:11;102845.54;;;12.09;23.92
73518;BME280;61766;60.318;25.044;2023-05-08T10:19:41;102842.26;;;12.37;24.14
73518;BME280;61766;60.318;25.044;2023-05-08T10:22:04;102836.37;;;12.44;24.46
73518;BME280;61766;60.318;25.044;2023-05-08T10:24:32;102841.42;;;13.13;23.51
73518;BME280;61766;60.318;25.044;2023-05-08T10:26:56;102831.26;;;13.21;23.10
73518;BME280;61766;60.318;25.044;2023-05-08T10:29:32;102833.76;;;13.50;23.35
73518;BME280;61766;60.318;25.044;2023-05-08T10:31:48;102826.72;;;13.81;23.30
73518;BME280;61766;60.318;25.044;2023-05-08T10:34:17;102824.28;;;15.10;22.29
73518;BME280;61766;60.318;25.044;2023-05-08T10:36:38;102823.78;;;13.77;23.62
73518;BME280;61766;60.318;25.044;2023-05-08T10:39:04;102815.44;;;14.62;21.16
73518;BME280;61766;60.318;25.044;2023-05-08T10:41:30;102815.12;;;15.28;21.33
73518;BME280;61766;60.318;25.044;2023-05-08T10:43:56;102811.92;;;15.12;21.35
73518;BME280;61766;60.318;25.044;2023-05-08T10:46:28;102807.84;;;14.23;23.17
73518;BME280;61766;60.318;25.044;2023-05-08T10:48:55;102804.08;;;14.88;22.30
73518;BME280;61766;60.318;25.044;2023-05-08T10:51:19;102804.53;;;14.74;22.60
73518;BME280;61766;60.318;25.044;2023-05-08T10:53:43;102804.74;;;14.71;22.21
73518;BME280;61766;60.318;25.044;2023-05-08T10:56:05;102804.04;;;14.95;21.79
73518;BME280;61766;60.318;25.044;2023-05-08T10:58:32;102804.97;;;13.08;22.89
73518;BME280;61766;60.318;25.044;2023-05-08T11:01:10;102807.01;;;14.27;21.86
73518;BME280;61766;60.318;25.044;2023-05-08T11:03:24;102802.94;;;14.10;22.29
73518;BME280;61766;60.318;25.044;2023-05-08T11:05:50;102810.15;;;14.64;21.46
73518;BME280;61766;60.318;25.044;2023-05-08T11:08:14;102799.23;;;14.83;21.28
73518;BME280;61766;60.318;25.044;2023-05-08T11:10:40;102798.34;;;15.68;21.38
73518;BME280;61766;60.318;25.044;2023-05-08T11:13:06;102798.32;;;14.77;22.26
73518;BME280;61766;60.318;25.044;2023-05-08T11:15:36;102795.41;;;15.11;21.42
73518;BME280;61766;60.318;25.044;2023-05-08T11:17:57;102807.92;;;15.07;22.08
73518;BME280;61766;60.318;25.044;2023-05-08T11:22:49;102796.30;;;14.44;22.43
73518;BME280;61766;60.318;25.044;2023-05-08T11:25:15;102796.22;;;14.66;22.72
73518;BME280;61766;60.318;25.044;2023-05-08T11:30:18;102793.96;;;15.28;22.61
73518;BME280;61766;60.318;25.044;2023-05-08T11:34:58;102799.07;;;14.69;22.94
73518;BME280;61766;60.318;25.044;2023-05-08T11:37:24;102793.89;;;13.36;23.73
73518;BME280;61766;60.318;25.044;2023-05-08T11:39:49;102793.74;;;15.09;22.61
73518;BME280;61766;60.318;25.044;2023-05-08T11:42:33;102812.35;;;12.50;23.95
73518;BME280;61766;60.318;25.044;2023-05-08T11:44:41;102796.93;;;14.52;22.88
73518;BME280;61766;60.318;25.044;2023-05-08T11:47:07;102795.35;;;12.90;23.93
73518;BME280;61766;60.318;25.044;2023-05-08T11:49:35;102803.92;;;13.46;24.22
73518;BME280;61766;60.318;25.044;2023-05-08T11:51:58;102783.15;;;13.76;23.51
73518;BME280;61766;60.318;25.044;2023-05-08T11:54:25;102786.86;;;13.75;23.28
73518;BME280;61766;60.318;25.044;2023-05-08T11:56:51;102794.39;;;13.01;24.60
73518;BME280;61766;60.318;25.044;2023-05-08T11:59:16;102785.57;;;14.95;22.78
73518;BME280;61766;60.318;25.044;2023-05-08T12:01:42;102783.48;;;14.77;22.62
73518;BME280;61766;60.318;25.044;2023-05-08T12:04:08;102789.73;;;15.02;22.47
73518;BME280;61766;60.318;25.044;2023-05-08T12:06:35;102784.65;;;14.76;21.96
73518;BME280;61766;60.318;25.044;2023-05-08T12:08:59;102782.83;;;15.60;21.82
73518;BME280;61766;60.318;25.044;2023-05-08T12:11:25;102779.15;;;15.18;21.90
73518;BME280;61766;60.318;25.044;2023-05-08T12:13:51;102778.24;;;15.32;21.55
73518;BME280;61766;60.318;25.044;2023-05-08T12:16:16;102779.37;;;13.64;22.62
73518;BME280;61766;60.318;25.044;2023-05-08T12:18:42;102781.09;;;15.29;22.21
73518;BME280;61766;60.318;25.044;2023-05-08T12:21:08;102783.57;;;14.44;22.49
73518;BME280;61766;60.318;25.044;2023-05-08T12:23:34;102798.51;;;13.16;23.38
73518;BME280;61766;60.318;25.044;2023-05-08T12:26:00;102773.17;;;13.16;23.65
73518;BME280;61766;60.318;25.044;2023-05-08T12:28:25;102782.36;;;13.94;23.55
73518;BME280;61766;60.318;25.044;2023-05-08T12:30:51;102767.13;;;14.42;23.07
73518;BME280;61766;60.318;25.044;2023-05-08T12:33:17;102771.26;;;14.43;22.62
73518;BME280;61766;60.318;25.044;2023-05-08T12:35:43;102761.98;;;14.14;23.12
73518;BME280;61766;60.318;25.044;2023-05-08T12:38:09;102757.35;;;14.09;23.29
73518;BME280;61766;60.318;25.044;2023-05-08T12:40:40;102750.00;;;14.31;22.73
73518;BME280;61766;60.318;25.044;2023-05-08T12:43:01;102764.34;;;13.25;23.38
73518;BME280;61766;60.318;25.044;2023-05-08T12:45:27;102763.43;;;12.95;24.50
73518;BME280;61766;60.318;25.044;2023-05-08T12:47:53;102771.61;;;14.01;23.75